Time,TemperatureF,DewpointF,PressureIn,WindDirection,WindDirectionDegrees,WindSpeedMPH,WindSpeedGustMPH,Humidity,HourlyPrecipIn,Conditions,Clouds,dailyrainin,SoftwareType,DateUTC
2013-02-03 00:00:00,12.5,9.1,29.94,SSE,148,2.0,2.0,86,0.00,,,0.00,Wunderground v.1.15,2013-02-03 05:00:00,
2013-02-03 00:05:00,12.5,9.1,29.94,SSE,148,1.0,2.0,86,0.00,,,0.00,Wunderground v.1.15,2013-02-03 05:05:00,
2013-02-03 00:10:00,12.4,9.0,29.94,SSE,148,1.0,1.0,86,0.00,,,0.00,Wunderground v.1.15,2013-02-03 05:10:00,
2013-02-03 00:15:00,12.5,9.1,29.94,SE,146,2.0,2.0,86,0.00,,,0.00,Wunderground v.1.15,2013-02-03 05:15:00,
2013-02-03 00:20:00,12.8,9.7,29.94,SSE,147,2.0,2.0,87,0.00,,,0.00,Wunderground v.1.15,2013-02-03 05:20:00,
2013-02-03 00:25:00,13.0,9.9,29.94,SE,134,2.0,3.0,87,0.00,,,0.00,Wunderground v.1.15,2013-02-03 05:25:00,
2013-02-03 00:30:00,13.0,9.6,29.94,SE,132,3.0,3.0,86,0.00,,,0.00,Wunderground v.1.15,2013-02-03 05:30:00,
2013-02-03 00:35:00,13.0,9.6,29.94,SE,132,3.0,3.0,86,0.00,,,0.00,Wunderground v.1.15,2013-02-03 05:35:00,
2013-02-03 00:40:00,12.9,9.2,29.94,SE,126,3.0,3.0,85,0.00,,,0.00,Wunderground v.1.15,2013-02-03 05:40:00,
2013-02-03 00:45:00,12.8,9.1,29.94,SE,128,3.0,3.0,85,0.00,,,0.00,Wunderground v.1.15,2013-02-03 05:45:00,
2013-02-03 00:50:00,12.6,8.9,29.94,SE,137,3.0,3.0,85,0.00,,,0.00,Wunderground v.1.15,2013-02-03 05:50:00,
2013-02-03 00:55:00,12.6,8.9,29.94,SE,136,3.0,3.0,85,0.00,,,0.00,Wunderground v.1.15,2013-02-03 05:55:00,
2013-02-03 01:00:00,12.5,8.8,29.94,SE,136,3.0,3.0,85,0.00,,,0.00,Wunderground v.1.15,2013-02-03 06:00:00,
2013-02-03 01:05:00,12.5,8.8,29.94,SE,136,2.0,3.0,85,0.00,,,0.00,Wunderground v.1.15,2013-02-03 06:05:00,
2013-02-03 01:10:00,12.4,8.7,29.94,SE,136,1.0,1.0,85,0.00,,,0.00,Wunderground v.1.15,2013-02-03 06:10:00,
2013-02-03 01:15:00,12.1,8.2,29.93,SE,136,0.0,1.0,84,0.00,,,0.00,Wunderground v.1.15,2013-02-03 06:15:00,
2013-02-03 01:20:00,12.0,8.1,29.93,SE,136,0.0,0.0,84,0.00,,,0.00,Wunderground v.1.15,2013-02-03 06:20:00,
2013-02-03 01:25:00,11.8,7.9,29.93,SE,136,0.0,2.0,84,0.00,,,0.00,Wunderground v.1.15,2013-02-03 06:25:00,
2013-02-03 01:30:00,11.6,7.7,29.93,SE,136,1.0,1.0,84,0.00,,,0.00,Wunderground v.1.15,2013-02-03 06:30:00,
2013-02-03 01:35:00,11.4,7.5,29.93,SE,136,1.0,1.0,84,0.00,,,0.00,Wunderground v.1.15,2013-02-03 06:35:00,
2013-02-03 01:40:00,11.2,7.3,29.93,SE,136,1.0,2.0,84,0.00,,,0.00,Wunderground v.1.15,2013-02-03 06:40:00,
2013-02-03 01:45:00,11.0,7.1,29.93,SE,136,2.0,2.0,84,0.00,,,0.00,Wunderground v.1.15,2013-02-03 06:45:00,
2013-02-03 01:50:00,10.8,6.9,29.93,SE,136,2.0,2.0,84,0.00,,,0.00,Wunderground v.1.15,2013-02-03 06:50:00,
2013-02-03 01:55:00,10.8,7.2,29.93,SE,134,2.0,2.0,85,0.00,,,0.00,Wunderground v.1.15,2013-02-03 06:55:00,
2013-02-03 02:00:00,10.7,6.8,29.93,SE,134,2.0,2.0,84,0.00,,,0.00,Wunderground v.1.15,2013-02-03 07:00:00,
2013-02-03 02:05:00,10.7,6.8,29.93,SE,134,2.0,2.0,84,0.00,,,0.00,Wunderground v.1.15,2013-02-03 07:05:00,
2013-02-03 02:10:00,10.6,6.7,29.93,SE,134,2.0,2.0,84,0.00,,,0.00,Wunderground v.1.15,2013-02-03 07:10:00,
2013-02-03 02:15:00,10.4,6.3,29.93,SE,134,2.0,2.0,83,0.00,,,0.00,Wunderground v.1.15,2013-02-03 07:15:00,
2013-02-03 02:20:00,10.3,6.4,29.93,SE,134,2.0,2.0,84,0.00,,,0.00,Wunderground v.1.15,2013-02-03 07:20:00,
2013-02-03 02:25:00,10.0,5.9,29.92,SE,134,2.0,2.0,83,0.00,,,0.00,Wunderground v.1.15,2013-02-03 07:25:00,
2013-02-03 02:30:00,9.8,5.7,29.92,SE,134,2.0,2.0,83,0.00,,,0.00,Wunderground v.1.15,2013-02-03 07:30:00,
2013-02-03 02:35:00,9.8,5.9,29.92,SE,134,1.0,2.0,84,0.00,,,0.00,Wunderground v.1.15,2013-02-03 07:35:00,
2013-02-03 02:40:00,9.9,6.3,29.92,SE,134,0.0,2.0,85,0.00,,,0.00,Wunderground v.1.15,2013-02-03 07:40:00,
2013-02-03 02:45:00,9.9,6.3,29.92,SE,134,1.0,2.0,85,0.00,,,0.00,Wunderground v.1.15,2013-02-03 07:45:00,
2013-02-03 02:50:00,9.9,6.3,29.92,SE,134,2.0,2.0,85,0.00,,,0.00,Wunderground v.1.15,2013-02-03 07:50:00,
2013-02-03 02:55:00,9.9,6.0,29.92,SE,134,2.0,2.0,84,0.00,,,0.00,Wunderground v.1.15,2013-02-03 07:55:00,
2013-02-03 03:00:00,9.6,5.7,29.92,SE,134,1.0,1.0,84,0.00,,,0.00,Wunderground v.1.15,2013-02-03 08:00:00,
2013-02-03 03:05:00,9.5,5.6,29.92,SE,134,1.0,2.0,84,0.00,,,0.00,Wunderground v.1.15,2013-02-03 08:05:00,
2013-02-03 03:10:00,9.4,5.5,29.92,SE,134,1.0,2.0,84,0.00,,,0.00,Wunderground v.1.15,2013-02-03 08:10:00,
2013-02-03 03:15:00,9.4,5.5,29.92,SE,134,2.0,2.0,84,0.00,,,0.00,Wunderground v.1.15,2013-02-03 08:15:00,
2013-02-03 03:20:00,9.3,5.4,29.92,SE,134,2.0,2.0,84,0.00,,,0.00,Wunderground v.1.15,2013-02-03 08:20:00,
2013-02-03 03:25:00,9.0,4.9,29.92,SE,134,1.0,2.0,83,0.00,,,0.00,Wunderground v.1.15,2013-02-03 08:25:00,
2013-02-03 03:30:00,8.7,4.9,29.92,SE,134,1.0,2.0,84,0.00,,,0.00,Wunderground v.1.15,2013-02-03 08:30:00,
2013-02-03 03:35:00,9.0,5.4,29.91,SE,133,2.0,3.0,85,0.00,,,0.00,Wunderground v.1.15,2013-02-03 08:35:00,
2013-02-03 03:40:00,9.5,6.2,29.92,SE,133,2.0,2.0,86,0.00,,,0.00,Wunderground v.1.15,2013-02-03 08:40:00,
2013-02-03 03:45:00,9.9,6.3,29.92,SE,133,2.0,2.0,85,0.00,,,0.00,Wunderground v.1.15,2013-02-03 08:45:00,
2013-02-03 04:00:00,10.1,6.2,29.91,SE,124,1.0,1.0,84,0.00,,,0.00,Wunderground v.1.15,2013-02-03 09:00:00,
2013-02-03 04:05:00,10.3,6.4,29.91,ESE,123,0.0,1.0,84,0.00,,,0.00,Wunderground v.1.15,2013-02-03 09:05:00,
2013-02-03 04:10:00,9.9,5.5,29.91,SE,124,1.0,1.0,82,0.00,,,0.00,Wunderground v.1.15,2013-02-03 09:10:00,
2013-02-03 04:25:00,9.1,5.2,29.91,SE,124,0.0,1.0,84,0.00,,,0.00,Wunderground v.1.15,2013-02-03 09:25:00,
2013-02-03 04:30:00,9.2,5.3,29.91,SE,124,1.0,1.0,84,0.00,,,0.00,Wunderground v.1.15,2013-02-03 09:30:00,
2013-02-03 04:40:00,8.9,4.5,29.92,ESE,123,2.0,2.0,82,0.00,,,0.00,Wunderground v.1.15,2013-02-03 09:40:00,
2013-02-03 04:45:00,8.6,4.5,29.92,ESE,123,2.0,2.0,83,0.00,,,0.00,Wunderground v.1.15,2013-02-03 09:45:00,
2013-02-03 04:55:00,7.9,3.5,29.92,SE,124,2.0,2.0,82,0.00,,,0.00,Wunderground v.1.15,2013-02-03 09:55:00,
2013-02-03 05:00:00,7.9,3.8,29.92,ESE,123,2.0,2.0,83,0.00,,,0.00,Wunderground v.1.15,2013-02-03 10:00:00,
2013-02-03 05:05:00,8.2,4.6,29.92,ESE,123,2.0,3.0,85,0.00,,,0.00,Wunderground v.1.15,2013-02-03 10:05:00,
2013-02-03 05:15:00,8.6,4.8,29.91,ESE,121,2.0,2.0,84,0.00,,,0.00,Wunderground v.1.15,2013-02-03 10:15:00,
2013-02-03 05:19:00,9.8,5.9,29.92,SE,132,2.0,2.0,84,0.00,,,0.00,Wunderground v.1.15,2013-02-03 10:19:00,
2013-02-03 05:24:00,10.0,6.4,29.91,ESE,123,2.0,2.0,85,0.00,,,0.00,Wunderground v.1.15,2013-02-03 10:24:00,
2013-02-03 05:30:00,8.4,4.3,29.92,ESE,121,1.0,1.0,83,0.00,,,0.00,Wunderground v.1.15,2013-02-03 10:30:00,
2013-02-03 05:35:00,8.3,4.5,29.92,ESE,121,1.0,2.0,84,0.00,,,0.00,Wunderground v.1.15,2013-02-03 10:35:00,
2013-02-03 05:40:00,8.6,5.3,29.92,ESE,121,1.0,1.0,86,0.00,,,0.00,Wunderground v.1.15,2013-02-03 10:40:00,
2013-02-03 05:44:00,9.4,5.0,29.91,SE,124,1.0,1.0,82,0.00,,,0.00,Wunderground v.1.15,2013-02-03 10:44:00,
2013-02-03 05:45:00,9.0,5.7,29.92,ESE,121,2.0,3.0,86,0.00,,,0.00,Wunderground v.1.15,2013-02-03 10:45:00,
2013-02-03 05:49:00,9.0,4.9,29.91,SE,124,1.0,1.0,83,0.00,,,0.00,Wunderground v.1.15,2013-02-03 10:49:00,
2013-02-03 06:00:00,9.0,5.1,29.92,ESE,121,3.0,3.0,84,0.00,,,0.00,Wunderground v.1.15,2013-02-03 11:00:00,
2013-02-03 06:04:00,9.2,5.3,29.91,SE,124,2.0,2.0,84,0.00,,,0.00,Wunderground v.1.15,2013-02-03 11:04:00,
2013-02-03 06:10:00,9.3,7.4,29.92,ESE,121,3.0,3.0,92,0.00,,,0.00,Wunderground v.1.15,2013-02-03 11:10:00,
2013-02-03 06:19:00,8.2,3.8,29.92,SE,124,2.0,2.0,82,0.00,,,0.00,Wunderground v.1.15,2013-02-03 11:19:00,
2013-02-03 06:39:00,8.5,4.7,29.92,ESE,121,2.0,2.0,84,0.00,,,0.00,Wunderground v.1.15,2013-02-03 11:39:00,
2013-02-03 06:49:00,8.6,4.5,29.92,ESE,121,2.0,2.0,83,0.00,,,0.00,Wunderground v.1.15,2013-02-03 11:49:00,
2013-02-03 06:50:00,8.4,4.6,29.92,ESE,115,0.0,1.0,84,0.00,,,0.00,Wunderground v.1.15,2013-02-03 11:50:00,
2013-02-03 06:54:00,8.6,4.5,29.92,ESE,121,2.0,2.0,83,0.00,,,0.00,Wunderground v.1.15,2013-02-03 11:54:00,
2013-02-03 07:05:00,9.4,5.5,29.91,ESE,114,2.0,2.0,84,0.00,,,0.00,Wunderground v.1.15,2013-02-03 12:05:00,
2013-02-03 07:15:00,9.4,5.3,29.91,ESE,115,1.0,2.0,83,0.00,,,0.00,Wunderground v.1.15,2013-02-03 12:15:00,
2013-02-03 07:19:00,9.1,5.5,29.92,ESE,121,2.0,3.0,85,0.00,,,0.00,Wunderground v.1.15,2013-02-03 12:19:00,
2013-02-03 07:20:00,9.4,5.3,29.91,ESE,114,2.0,2.0,83,0.00,,,0.00,Wunderground v.1.15,2013-02-03 12:20:00,
2013-02-03 07:24:00,8.9,5.1,29.92,ESE,121,3.0,3.0,84,0.00,,,0.00,Wunderground v.1.15,2013-02-03 12:24:00,
2013-02-03 07:34:00,9.3,5.4,29.92,ESE,121,3.0,3.0,84,0.00,,,0.00,Wunderground v.1.15,2013-02-03 12:34:00,
2013-02-03 07:44:00,9.3,5.2,29.92,ESE,114,3.0,3.0,83,0.00,,,0.00,Wunderground v.1.15,2013-02-03 12:44:00,
2013-02-03 07:49:00,9.2,4.8,29.92,ESE,115,3.0,3.0,82,0.00,,,0.00,Wunderground v.1.15,2013-02-03 12:49:00,
2013-02-03 07:54:00,9.1,4.7,29.92,ESE,115,2.0,3.0,82,0.00,,,0.00,Wunderground v.1.15,2013-02-03 12:54:00,
2013-02-03 08:04:00,8.4,4.0,29.92,ESE,115,0.0,1.0,82,0.00,,,0.00,Wunderground v.1.15,2013-02-03 13:04:00,
2013-02-03 08:09:00,8.3,3.9,29.92,ESE,115,0.0,0.0,82,0.00,,,0.00,Wunderground v.1.15,2013-02-03 13:09:00,
2013-02-03 08:14:00,8.2,4.1,29.92,ESE,115,0.0,0.0,83,0.00,,,0.00,Wunderground v.1.15,2013-02-03 13:14:00,
2013-02-03 08:24:00,8.6,4.8,29.91,ESE,115,1.0,2.0,84,0.00,,,0.00,Wunderground v.1.15,2013-02-03 13:24:00,
2013-02-03 08:29:00,9.0,5.4,29.91,ESE,114,2.0,2.0,85,0.00,,,0.00,Wunderground v.1.15,2013-02-03 13:29:00,
2013-02-03 08:39:00,9.5,5.6,29.91,ESE,115,1.0,1.0,84,0.00,,,0.00,Wunderground v.1.15,2013-02-03 13:39:00,
2013-02-03 08:54:00,9.5,5.4,29.91,ESE,115,2.0,3.0,83,0.00,,,0.00,Wunderground v.1.15,2013-02-03 13:54:00,
2013-02-03 09:04:00,9.9,6.0,29.90,ESE,115,1.0,1.0,84,0.00,,,0.00,Wunderground v.1.15,2013-02-03 14:04:00,
2013-02-03 09:09:00,10.1,6.2,29.90,ESE,115,0.0,0.0,84,0.00,,,0.00,Wunderground v.1.15,2013-02-03 14:09:00,
2013-02-03 09:14:00,10.5,6.6,29.90,ESE,115,0.0,0.0,84,0.00,,,0.00,Wunderground v.1.15,2013-02-03 14:14:00,
2013-02-03 09:19:00,10.8,6.9,29.91,ESE,115,0.0,0.0,84,0.00,,,0.00,Wunderground v.1.15,2013-02-03 14:19:00,
2013-02-03 09:29:00,11.6,7.7,29.91,ESE,115,0.0,0.0,84,0.00,,,0.00,Wunderground v.1.15,2013-02-03 14:29:00,
2013-02-03 09:34:00,12.0,8.1,29.91,ESE,114,0.0,1.0,84,0.00,,,0.00,Wunderground v.1.15,2013-02-03 14:34:00,
2013-02-03 09:44:00,12.8,8.9,29.91,ESE,115,0.0,0.0,84,0.00,,,0.00,Wunderground v.1.15,2013-02-03 14:44:00,
2013-02-03 09:49:00,13.2,9.3,29.91,ESE,115,0.0,0.0,84,0.00,,,0.00,Wunderground v.1.15,2013-02-03 14:49:00,
2013-02-03 09:54:00,13.7,9.5,29.91,ESE,114,0.0,0.0,83,0.00,,,0.00,Wunderground v.1.15,2013-02-03 14:54:00,
2013-02-03 09:59:00,14.1,9.6,29.91,ESE,114,0.0,0.0,82,0.00,,,0.00,Wunderground v.1.15,2013-02-03 14:59:00,
2013-02-03 10:04:00,14.3,9.8,29.91,ESE,115,0.0,0.0,82,0.00,,,0.00,Wunderground v.1.15,2013-02-03 15:04:00,
2013-02-03 10:09:00,14.8,10.0,29.90,ESE,114,0.0,0.0,81,0.00,,,0.00,Wunderground v.1.15,2013-02-03 15:09:00,
2013-02-03 10:14:00,15.2,10.4,29.90,ESE,114,0.0,0.0,81,0.00,,,0.00,Wunderground v.1.15,2013-02-03 15:14:00,
2013-02-03 10:19:00,15.5,10.4,29.90,East,88,0.0,0.0,80,0.00,,,0.00,Wunderground v.1.15,2013-02-03 15:19:00,
2013-02-03 10:24:00,16.0,10.6,29.90,ESE,119,0.0,2.0,79,0.00,,,0.00,Wunderground v.1.15,2013-02-03 15:24:00,
2013-02-03 10:29:00,16.6,10.9,29.89,West,265,1.0,1.0,78,0.00,,,0.00,Wunderground v.1.15,2013-02-03 15:29:00,
2013-02-03 10:34:00,17.2,10.9,29.89,West,264,1.0,1.0,76,0.00,,,0.00,Wunderground v.1.15,2013-02-03 15:34:00,
2013-02-03 10:44:00,17.9,11.3,29.89,SE,142,1.0,3.0,75,0.00,,,0.00,Wunderground v.1.15,2013-02-03 15:44:00,
2013-02-03 10:54:00,18.9,12.0,29.89,SE,137,1.0,2.0,74,0.00,,,0.00,Wunderground v.1.15,2013-02-03 15:54:00,
2013-02-03 10:59:00,19.3,12.4,29.88,SSW,198,2.0,3.0,74,0.00,,,0.00,Wunderground v.1.15,2013-02-03 15:59:00,
2013-02-03 11:04:00,20.2,12.9,29.88,SW,222,3.0,3.0,73,0.00,,,0.00,Wunderground v.1.15,2013-02-03 16:04:00,
2013-02-03 11:09:00,21.2,13.3,29.88,SW,222,1.0,1.0,71,0.00,,,0.00,Wunderground v.1.15,2013-02-03 16:09:00,
2013-02-03 11:14:00,21.7,13.1,29.87,SSE,159,0.0,1.0,69,0.00,,,0.00,Wunderground v.1.15,2013-02-03 16:14:00,
2013-02-03 11:19:00,21.8,12.9,29.87,SSE,161,1.0,7.0,68,0.00,,,0.00,Wunderground v.1.15,2013-02-03 16:19:00,
2013-02-03 11:24:00,22.2,13.2,29.86,South,183,2.0,7.0,68,0.00,,,0.00,Wunderground v.1.15,2013-02-03 16:24:00,
2013-02-03 11:29:00,22.1,11.8,29.85,SE,133,2.0,8.0,64,0.00,,,0.00,Wunderground v.1.15,2013-02-03 16:29:00,
2013-02-03 11:34:00,21.5,12.2,29.85,SE,137,3.0,8.0,67,0.00,,,0.00,Wunderground v.1.15,2013-02-03 16:34:00,
2013-02-03 11:44:00,21.7,12.4,29.84,SE,141,3.0,3.0,67,0.00,,,0.00,Wunderground v.1.15,2013-02-03 16:44:00,
2013-02-03 11:49:00,22.6,13.3,29.84,SSE,159,2.0,2.0,67,0.00,,,0.00,Wunderground v.1.15,2013-02-03 16:49:00,
2013-02-03 11:54:00,23.2,13.5,29.84,SE,138,1.0,2.0,66,0.00,,,0.00,Wunderground v.1.15,2013-02-03 16:54:00,
2013-02-03 11:59:00,23.9,13.8,29.83,SSW,204,1.0,1.0,65,0.00,,,0.00,Wunderground v.1.15,2013-02-03 16:59:00,
2013-02-03 12:04:00,23.8,13.0,29.83,SSE,163,1.0,7.0,63,0.00,,,0.01,Wunderground v.1.15,2013-02-03 17:04:00,
2013-02-03 12:09:00,23.4,13.4,29.83,South,175,2.0,2.0,65,0.00,,,0.01,Wunderground v.1.15,2013-02-03 17:09:00,
2013-02-03 12:19:00,23.2,13.5,29.82,SW,236,2.0,4.0,66,0.00,,,0.01,Wunderground v.1.15,2013-02-03 17:19:00,
2013-02-03 12:24:00,24.2,12.7,29.82,SE,134,2.0,4.0,61,0.00,,,0.01,Wunderground v.1.15,2013-02-03 17:24:00,
2013-02-03 12:29:00,24.7,13.1,29.82,ESE,117,2.0,2.0,61,0.00,,,0.01,Wunderground v.1.15,2013-02-03 17:29:00,
2013-02-03 12:34:00,24.3,12.0,29.81,ESE,102,2.0,2.0,59,0.00,,,0.01,Wunderground v.1.15,2013-02-03 17:34:00,
2013-02-03 12:44:00,23.7,13.3,29.81,SW,226,3.0,4.0,64,0.00,,,0.01,Wunderground v.1.15,2013-02-03 17:44:00,
2013-02-03 12:49:00,24.8,14.7,29.80,SSE,149,1.0,3.0,65,0.00,,,0.01,Wunderground v.1.15,2013-02-03 17:49:00,
2013-02-03 12:54:00,24.8,11.7,29.80,SSE,159,2.0,4.0,57,0.00,,,0.01,Wunderground v.1.15,2013-02-03 17:54:00,
2013-02-03 12:59:00,24.1,11.8,29.79,NNW,338,2.0,2.0,59,0.00,,,0.01,Wunderground v.1.15,2013-02-03 17:59:00,
2013-02-03 13:04:00,23.7,11.4,29.79,SSE,161,1.0,6.0,59,0.00,,,0.01,Wunderground v.1.15,2013-02-03 18:04:00,
2013-02-03 13:09:00,23.4,12.3,29.78,South,174,1.0,1.0,62,0.00,,,0.01,Wunderground v.1.15,2013-02-03 18:09:00,
2013-02-03 13:14:00,24.3,13.1,29.78,South,183,1.0,1.0,62,0.00,,,0.01,Wunderground v.1.15,2013-02-03 18:14:00,
2013-02-03 13:19:00,25.2,13.6,29.78,SSE,163,1.0,1.0,61,0.00,,,0.01,Wunderground v.1.15,2013-02-03 18:19:00,
2013-02-03 13:24:00,25.1,12.4,29.77,ESE,113,1.0,1.0,58,0.00,,,0.01,Wunderground v.1.15,2013-02-03 18:24:00,
2013-02-03 13:29:00,25.0,11.9,29.77,SSE,166,2.0,2.0,57,0.00,,,0.01,Wunderground v.1.15,2013-02-03 18:29:00,
2013-02-03 13:34:00,25.2,11.3,29.76,ENE,78,1.0,5.0,55,0.00,,,0.01,Wunderground v.1.15,2013-02-03 18:34:00,
2013-02-03 13:44:00,24.3,10.4,29.75,East,88,4.0,5.0,55,0.00,,,0.01,Wunderground v.1.15,2013-02-03 18:44:00,
2013-02-03 13:49:00,24.6,12.3,29.75,SSE,150,4.0,4.0,59,0.00,,,0.01,Wunderground v.1.15,2013-02-03 18:49:00,
2013-02-03 13:54:00,25.3,12.6,29.74,SSE,150,3.0,4.0,58,0.00,,,0.01,Wunderground v.1.15,2013-02-03 18:54:00,
2013-02-03 13:59:00,25.2,11.7,29.74,ENE,65,2.0,2.0,56,0.00,,,0.01,Wunderground v.1.15,2013-02-03 18:59:00,
2013-02-03 14:04:00,25.1,11.6,29.74,NNE,14,2.0,2.0,56,0.00,,,0.01,Wunderground v.1.15,2013-02-03 19:04:00,
2013-02-03 14:09:00,25.0,10.7,29.74,NNW,346,2.0,2.0,54,0.00,,,0.01,Wunderground v.1.15,2013-02-03 19:09:00,
2013-02-03 14:14:00,25.2,10.9,29.74,NE,52,1.0,3.0,54,0.00,,,0.01,Wunderground v.1.15,2013-02-03 19:14:00,
2013-02-03 14:19:00,24.9,10.6,29.74,NNE,13,1.0,2.0,54,0.00,,,0.01,Wunderground v.1.15,2013-02-03 19:19:00,
2013-02-03 14:24:00,25.2,10.4,29.74,East,98,2.0,4.0,53,0.00,,,0.01,Wunderground v.1.15,2013-02-03 19:24:00,
2013-02-03 14:29:00,25.4,10.6,29.74,ESE,115,3.0,4.0,53,0.00,,,0.01,Wunderground v.1.15,2013-02-03 19:29:00,
2013-02-03 14:34:00,25.4,10.6,29.74,SE,126,4.0,4.0,53,0.00,,,0.01,Wunderground v.1.15,2013-02-03 19:34:00,
2013-02-03 14:44:00,25.4,10.6,29.74,ESE,105,2.0,3.0,53,0.00,,,0.01,Wunderground v.1.15,2013-02-03 19:44:00,
2013-02-03 14:49:00,25.5,10.3,29.74,ENE,72,2.0,2.0,52,0.00,,,0.01,Wunderground v.1.15,2013-02-03 19:49:00,
2013-02-03 14:54:00,25.6,9.5,29.74,ENE,74,2.0,2.0,50,0.00,,,0.01,Wunderground v.1.15,2013-02-03 19:54:00,
2013-02-03 14:59:00,25.6,10.8,29.74,ENE,67,2.0,2.0,53,0.00,,,0.01,Wunderground v.1.15,2013-02-03 19:59:00,
2013-02-03 15:04:00,25.9,10.2,29.74,ENE,70,1.0,2.0,51,0.00,,,0.01,Wunderground v.1.15,2013-02-03 20:04:00,
2013-02-03 15:09:00,25.7,10.0,29.74,ENE,71,0.0,0.0,51,0.00,,,0.01,Wunderground v.1.15,2013-02-03 20:09:00,
2013-02-03 15:14:00,25.8,10.6,29.74,ESE,114,1.0,4.0,52,0.00,,,0.01,Wunderground v.1.15,2013-02-03 20:14:00,
2013-02-03 15:19:00,25.7,10.5,29.74,ESE,114,2.0,2.0,52,0.00,,,0.01,Wunderground v.1.15,2013-02-03 20:19:00,
2013-02-03 15:24:00,25.6,10.4,29.73,East,82,2.0,4.0,52,0.00,,,0.01,Wunderground v.1.15,2013-02-03 20:24:00,
2013-02-03 15:29:00,25.7,10.5,29.73,East,90,3.0,4.0,52,0.00,,,0.01,Wunderground v.1.15,2013-02-03 20:29:00,
2013-02-03 15:34:00,25.5,10.3,29.73,ENE,77,2.0,4.0,52,0.00,,,0.01,Wunderground v.1.15,2013-02-03 20:34:00,
2013-02-03 15:44:00,25.6,10.4,29.72,ENE,71,3.0,3.0,52,0.00,,,0.01,Wunderground v.1.15,2013-02-03 20:44:00,
2013-02-03 15:49:00,25.4,9.8,29.72,NE,55,2.0,2.0,51,0.00,,,0.01,Wunderground v.1.15,2013-02-03 20:49:00,
2013-02-03 15:54:00,25.2,10.0,29.72,NE,47,2.0,2.0,52,0.00,,,0.01,Wunderground v.1.15,2013-02-03 20:54:00,
2013-02-03 15:59:00,24.9,9.7,29.72,East,81,3.0,4.0,52,0.00,,,0.01,Wunderground v.1.15,2013-02-03 20:59:00,
2013-02-03 16:04:00,24.7,9.5,29.72,East,83,2.0,4.0,52,0.00,,,0.01,Wunderground v.1.15,2013-02-03 21:04:00,
2013-02-03 16:09:00,24.7,9.5,29.72,East,92,2.0,3.0,52,0.00,,,0.01,Wunderground v.1.15,2013-02-03 21:09:00,
2013-02-03 16:14:00,24.7,9.5,29.72,ESE,103,2.0,5.0,52,0.00,,,0.01,Wunderground v.1.15,2013-02-03 21:14:00,
2013-02-03 16:24:00,24.5,8.9,29.72,SE,126,3.0,4.0,51,0.00,,,0.01,Wunderground v.1.15,2013-02-03 21:24:00,
2013-02-03 16:29:00,24.4,8.8,29.72,SE,138,2.0,2.0,51,0.00,,,0.01,Wunderground v.1.15,2013-02-03 21:29:00,
2013-02-03 16:34:00,24.1,9.0,29.72,SE,138,2.0,3.0,52,0.00,,,0.01,Wunderground v.1.15,2013-02-03 21:34:00,
2013-02-03 16:44:00,23.9,10.1,29.72,SE,138,2.0,3.0,55,0.00,,,0.01,Wunderground v.1.15,2013-02-03 21:44:00,
2013-02-03 16:49:00,23.9,9.6,29.72,SE,138,2.0,2.0,54,0.00,,,0.01,Wunderground v.1.15,2013-02-03 21:49:00,
2013-02-03 16:59:00,23.7,9.5,29.71,SE,140,2.0,2.0,54,0.00,,,0.01,Wunderground v.1.15,2013-02-03 21:59:00,
2013-02-03 17:04:00,23.6,8.9,29.71,SE,140,2.0,2.0,53,0.00,,,0.01,Wunderground v.1.15,2013-02-03 22:04:00,
2013-02-03 17:09:00,23.5,8.9,29.71,SE,140,2.0,2.0,53,0.00,,,0.01,Wunderground v.1.15,2013-02-03 22:09:00,
2013-02-03 17:14:00,23.4,8.8,29.71,SE,124,2.0,4.0,53,0.00,,,0.01,Wunderground v.1.15,2013-02-03 22:14:00,
2013-02-03 17:19:00,23.4,8.8,29.71,ESE,123,2.0,2.0,53,0.00,,,0.01,Wunderground v.1.15,2013-02-03 22:19:00,
2013-02-03 17:24:00,23.3,8.7,29.71,ESE,123,1.0,2.0,53,0.00,,,0.01,Wunderground v.1.15,2013-02-03 22:24:00,
2013-02-03 17:29:00,23.1,8.9,29.71,ESE,123,1.0,1.0,54,0.00,,,0.01,Wunderground v.1.15,2013-02-03 22:29:00,
2013-02-03 17:34:00,22.9,9.1,29.71,SE,124,1.0,1.0,55,0.00,,,0.01,Wunderground v.1.15,2013-02-03 22:34:00,
2013-02-03 17:44:00,22.4,9.1,29.71,SE,142,2.0,4.0,56,0.00,,,0.01,Wunderground v.1.15,2013-02-03 22:44:00,
2013-02-03 17:49:00,22.2,8.5,29.70,SE,124,3.0,6.0,55,0.00,,,0.01,Wunderground v.1.15,2013-02-03 22:49:00,
2013-02-03 17:54:00,22.0,8.7,29.70,SE,136,4.0,6.0,56,0.00,,,0.01,Wunderground v.1.15,2013-02-03 22:54:00,
2013-02-03 17:59:00,21.9,9.0,29.70,SE,136,3.0,3.0,57,0.00,,,0.01,Wunderground v.1.15,2013-02-03 22:59:00,
2013-02-03 18:09:00,21.5,9.4,29.69,SE,136,2.0,3.0,59,0.00,,,0.01,Wunderground v.1.15,2013-02-03 23:09:00,
2013-02-03 18:14:00,21.4,9.7,29.69,SE,136,2.0,4.0,60,0.00,,,0.01,Wunderground v.1.15,2013-02-03 23:14:00,
2013-02-03 18:19:00,21.3,9.2,29.69,SE,136,3.0,4.0,59,0.00,,,0.01,Wunderground v.1.15,2013-02-03 23:19:00,
2013-02-03 18:24:00,21.3,9.2,29.69,SE,134,3.0,4.0,59,0.00,,,0.01,Wunderground v.1.15,2013-02-03 23:24:00,
2013-02-03 18:29:00,21.3,8.8,29.68,SE,129,4.0,6.0,58,0.00,,,0.01,Wunderground v.1.15,2013-02-03 23:29:00,
2013-02-03 18:34:00,21.3,9.2,29.68,SE,137,4.0,6.0,59,0.00,,,0.01,Wunderground v.1.15,2013-02-03 23:34:00,
2013-02-03 18:44:00,21.2,9.1,29.67,SE,134,4.0,5.0,59,0.00,,,0.01,Wunderground v.1.15,2013-02-03 23:44:00,
2013-02-03 18:49:00,21.1,9.4,29.68,SE,127,4.0,4.0,60,0.00,,,0.01,Wunderground v.1.15,2013-02-03 23:49:00,
2013-02-03 18:54:00,21.0,8.9,29.67,ESE,117,4.0,5.0,59,0.00,,,0.01,Wunderground v.1.15,2013-02-03 23:54:00,
2013-02-03 19:04:00,20.9,8.8,29.67,SE,128,3.0,4.0,59,0.00,,,0.01,Wunderground v.1.15,2013-02-04 00:04:00,
2013-02-03 19:09:00,20.8,9.5,29.68,SE,128,1.0,1.0,61,0.00,,,0.01,Wunderground v.1.15,2013-02-04 00:09:00,
2013-02-03 19:14:00,20.4,9.4,29.67,SE,128,0.0,1.0,62,0.00,,,0.01,Wunderground v.1.15,2013-02-04 00:14:00,
2013-02-03 19:19:00,20.2,9.6,29.67,SE,128,1.0,1.0,63,0.00,,,0.01,Wunderground v.1.15,2013-02-04 00:19:00,
2013-02-03 19:24:00,20.0,10.1,29.68,SE,128,1.0,1.0,65,0.00,,,0.01,Wunderground v.1.15,2013-02-04 00:24:00,
2013-02-03 19:29:00,19.9,9.3,29.67,SE,128,1.0,1.0,63,0.00,,,0.01,Wunderground v.1.15,2013-02-04 00:29:00,
2013-02-03 19:34:00,19.7,9.5,29.67,SE,128,1.0,1.0,64,0.00,,,0.01,Wunderground v.1.15,2013-02-04 00:34:00,
2013-02-03 19:44:00,19.7,9.1,29.67,SE,128,1.0,2.0,63,0.00,,,0.01,Wunderground v.1.15,2013-02-04 00:44:00,
2013-02-03 19:54:00,20.3,9.0,29.67,SE,128,2.0,3.0,61,0.00,,,0.01,Wunderground v.1.15,2013-02-04 00:54:00,
2013-02-03 19:59:00,20.5,9.2,29.68,SE,128,2.0,2.0,61,0.00,,,0.01,Wunderground v.1.15,2013-02-04 00:59:00,
2013-02-03 20:04:00,20.6,9.3,29.68,SE,128,1.0,2.0,61,0.00,,,0.01,Wunderground v.1.15,2013-02-04 01:04:00,
2013-02-03 20:09:00,20.4,9.4,29.68,SE,128,0.0,0.0,62,0.00,,,0.01,Wunderground v.1.15,2013-02-04 01:09:00,
2013-02-03 20:14:00,20.1,10.2,29.68,SE,128,0.0,1.0,65,0.00,,,0.01,Wunderground v.1.15,2013-02-04 01:14:00,
2013-02-03 20:19:00,19.7,10.2,29.68,SE,128,1.0,1.0,66,0.00,,,0.01,Wunderground v.1.15,2013-02-04 01:19:00,
2013-02-03 20:24:00,19.4,9.9,29.68,SE,126,1.0,4.0,66,0.00,,,0.01,Wunderground v.1.15,2013-02-04 01:24:00,
2013-02-03 20:29:00,19.2,10.0,29.68,SE,127,2.0,2.0,67,0.00,,,0.01,Wunderground v.1.15,2013-02-04 01:29:00,
2013-02-03 20:34:00,19.1,9.9,29.68,SE,128,3.0,3.0,67,0.00,,,0.01,Wunderground v.1.15,2013-02-04 01:34:00,
2013-02-03 20:44:00,19.1,9.9,29.68,SE,128,3.0,3.0,67,0.00,,,0.01,Wunderground v.1.15,2013-02-04 01:44:00,
2013-02-03 20:49:00,19.2,9.7,29.68,SE,127,3.0,3.0,66,0.00,,,0.01,Wunderground v.1.15,2013-02-04 01:49:00,
2013-02-03 20:54:00,19.3,9.8,29.68,SE,127,3.0,3.0,66,0.00,,,0.01,Wunderground v.1.15,2013-02-04 01:54:00,
2013-02-03 20:59:00,19.4,9.5,29.68,SE,127,3.0,3.0,65,0.00,,,0.01,Wunderground v.1.15,2013-02-04 01:59:00,
2013-02-03 21:04:00,19.5,9.6,29.67,ESE,113,3.0,3.0,65,0.00,,,0.01,Wunderground v.1.15,2013-02-04 02:04:00,
2013-02-03 21:14:00,19.5,9.6,29.67,ESE,113,3.0,5.0,65,0.00,,,0.01,Wunderground v.1.15,2013-02-04 02:14:00,
2013-02-03 21:19:00,19.6,10.1,29.67,ESE,117,3.0,3.0,66,0.00,,,0.01,Wunderground v.1.15,2013-02-04 02:19:00,
2013-02-03 21:24:00,19.7,10.8,29.67,ESE,117,3.0,3.0,68,0.00,,,0.01,Wunderground v.1.15,2013-02-04 02:24:00,
2013-02-03 21:29:00,19.7,10.2,29.66,ESE,117,2.0,2.0,66,0.00,,,0.01,Wunderground v.1.15,2013-02-04 02:29:00,
2013-02-03 21:34:00,19.7,10.2,29.66,ESE,117,2.0,2.0,66,0.00,,,0.01,Wunderground v.1.15,2013-02-04 02:34:00,
2013-02-03 21:44:00,19.2,9.4,29.66,SE,124,1.0,2.0,65,0.00,,,0.01,Wunderground v.1.15,2013-02-04 02:44:00,
2013-02-03 21:54:00,19.4,9.5,29.65,SE,124,2.0,3.0,65,0.00,,,0.01,Wunderground v.1.15,2013-02-04 02:54:00,
2013-02-03 21:59:00,19.3,9.4,29.65,SE,124,2.0,2.0,65,0.00,,,0.01,Wunderground v.1.15,2013-02-04 02:59:00,
2013-02-03 22:04:00,19.1,9.3,29.65,ESE,123,2.0,2.0,65,0.00,,,0.01,Wunderground v.1.15,2013-02-04 03:04:00,
2013-02-03 22:09:00,18.9,9.1,29.64,SE,124,2.0,2.0,65,0.00,,,0.01,Wunderground v.1.15,2013-02-04 03:09:00,
2013-02-03 22:14:00,18.8,9.0,29.64,SE,124,1.0,2.0,65,0.00,,,0.01,Wunderground v.1.15,2013-02-04 03:14:00,
2013-02-03 22:19:00,18.8,8.6,29.64,SE,124,1.0,1.0,64,0.00,,,0.01,Wunderground v.1.15,2013-02-04 03:19:00,
2013-02-03 22:29:00,18.5,9.0,29.64,ESE,123,1.0,1.0,66,0.00,,,0.01,Wunderground v.1.15,2013-02-04 03:29:00,
2013-02-03 22:34:00,18.3,8.8,29.64,SE,124,1.0,3.0,66,0.00,,,0.01,Wunderground v.1.15,2013-02-04 03:34:00,
2013-02-03 22:35:00,18.1,8.6,29.60,SE,125,4.0,4.0,66,0.00,,,0.01,Wunderground v.1.15,2013-02-04 03:35:00,
2013-02-03 22:40:00,18.0,8.5,29.60,SE,126,4.0,4.0,66,0.00,,,0.01,Wunderground v.1.15,2013-02-04 03:40:00,
2013-02-03 22:44:00,18.4,8.9,29.64,SE,124,2.0,2.0,66,0.00,,,0.01,Wunderground v.1.15,2013-02-04 03:44:00,
2013-02-03 22:45:00,18.0,8.2,29.60,SE,125,4.0,4.0,65,0.00,,,0.01,Wunderground v.1.15,2013-02-04 03:45:00,
2013-02-03 22:49:00,18.5,8.3,29.63,SE,125,2.0,2.0,64,0.00,,,0.01,Wunderground v.1.15,2013-02-04 03:49:00,
2013-02-03 22:50:00,18.0,8.2,29.60,SE,126,4.0,4.0,65,0.00,,,0.01,Wunderground v.1.15,2013-02-04 03:50:00,
2013-02-03 22:54:00,18.7,8.5,29.63,SE,125,2.0,2.0,64,0.00,,,0.01,Wunderground v.1.15,2013-02-04 03:54:00,
2013-02-03 22:55:00,18.0,8.2,29.60,SE,126,4.0,4.0,65,0.00,,,0.01,Wunderground v.1.15,2013-02-04 03:55:00,
2013-02-03 22:59:00,18.8,8.3,29.63,SE,125,1.0,1.0,63,0.00,,,0.01,Wunderground v.1.15,2013-02-04 03:59:00,
2013-02-03 23:00:00,18.0,8.2,29.59,SE,126,3.0,3.0,65,0.00,,,0.01,Wunderground v.1.15,2013-02-04 04:00:00,
2013-02-03 23:05:00,17.9,8.1,29.60,SE,126,3.0,3.0,65,0.00,,,0.01,Wunderground v.1.15,2013-02-04 04:05:00,
2013-02-03 23:09:00,18.9,9.1,29.63,SE,125,1.0,1.0,65,0.00,,,0.01,Wunderground v.1.15,2013-02-04 04:09:00,
2013-02-03 23:10:00,17.5,8.7,29.59,SE,126,2.0,3.0,68,0.00,,,0.01,Wunderground v.1.15,2013-02-04 04:10:00,
2013-02-03 23:14:00,18.8,9.3,29.62,SE,125,0.0,1.0,66,0.00,,,0.01,Wunderground v.1.15,2013-02-04 04:14:00,
2013-02-03 23:15:00,17.2,7.8,29.59,SE,125,2.0,4.0,66,0.00,,,0.01,Wunderground v.1.15,2013-02-04 04:15:00,
2013-02-03 23:19:00,18.6,9.1,29.62,SE,125,0.0,0.0,66,0.00,,,0.01,Wunderground v.1.15,2013-02-04 04:19:00,
2013-02-03 23:20:00,17.2,7.8,29.59,SE,128,3.0,3.0,66,0.00,,,0.01,Wunderground v.1.15,2013-02-04 04:20:00,
2013-02-03 23:24:00,18.4,9.3,29.62,SE,125,1.0,1.0,67,0.00,,,0.01,Wunderground v.1.15,2013-02-04 04:24:00,
2013-02-03 23:25:00,17.2,7.8,29.59,SE,128,3.0,3.0,66,0.00,,,0.01,Wunderground v.1.15,2013-02-04 04:25:00,
2013-02-03 23:29:00,18.3,9.2,29.62,SE,125,1.0,1.0,67,0.00,,,0.01,Wunderground v.1.15,2013-02-04 04:29:00,
2013-02-03 23:30:00,17.2,7.8,29.59,SE,128,3.0,3.0,66,0.00,,,0.01,Wunderground v.1.15,2013-02-04 04:30:00,
2013-02-03 23:34:00,18.2,9.4,29.62,SE,125,1.0,4.0,68,0.00,,,0.01,Wunderground v.1.15,2013-02-04 04:34:00,
2013-02-03 23:35:00,17.2,7.8,29.59,SE,137,3.0,3.0,66,0.00,,,0.01,Wunderground v.1.15,2013-02-04 04:35:00,
2013-02-03 23:40:00,17.2,7.8,29.59,ESE,107,3.0,3.0,66,0.00,,,0.01,Wunderground v.1.15,2013-02-04 04:40:00,
2013-02-03 23:44:00,17.9,9.1,29.61,SE,125,2.0,3.0,68,0.00,,,0.01,Wunderground v.1.15,2013-02-04 04:44:00,
2013-02-03 23:45:00,17.4,8.0,29.59,ESE,113,3.0,3.0,66,0.00,,,0.01,Wunderground v.1.15,2013-02-04 04:45:00,
2013-02-03 23:49:00,17.9,9.4,29.61,SE,125,3.0,3.0,69,0.00,,,0.01,Wunderground v.1.15,2013-02-04 04:49:00,
2013-02-03 23:50:00,17.5,7.7,29.59,SE,129,3.0,6.0,65,0.00,,,0.01,Wunderground v.1.15,2013-02-04 04:50:00,
2013-02-03 23:54:00,18.0,9.2,29.61,SE,125,3.0,3.0,68,0.00,,,0.01,Wunderground v.1.15,2013-02-04 04:54:00,
2013-02-03 23:55:00,17.4,8.0,29.59,SE,130,4.0,6.0,66,0.00,,,0.01,Wunderground v.1.15,2013-02-04 04:55:00,
2013-02-03 23:59:00,18.0,8.9,29.60,SE,125,3.0,3.0,67,0.00,,,0.01,Wunderground v.1.15,2013-02-04 04:59:00,